sensor_id;sensor_type;location;lat;lon;timestamp;P1;durP1;ratioP1;P2;durP2;ratioP2
50649;SDS011;36621;60.058;30.346;2023-09-19T00:02:24;7.75;;;4.28;;
50649;SDS011;36621;60.058;30.346;2023-09-19T00:09:56;6.40;;;4.22;;
50649;SDS011;36621;60.058;30.346;2023-09-19T00:17:29;10.77;;;4.38;;
50649;SDS011;36621;60.058;30.346;2023-09-19T00:25:03;8.57;;;4.05;;
50649;SDS011;36621;60.058;30.346;2023-09-19T00:32:37;7.00;;;3.47;;
50649;SDS011;36621;60.058;30.346;2023-09-19T00:40:10;4.65;;;3.40;;
50649;SDS011;36621;60.058;30.346;2023-09-19T00:47:45;7.47;;;4.18;;
50649;SDS011;36621;60.058;30.346;2023-09-19T00:55:20;7.72;;;4.30;;
50649;SDS011;36621;60.058;30.346;2023-09-19T01:02:53;10.52;;;4.35;;
50649;SDS011;36621;60.058;30.346;2023-09-19T01:10:26;6.47;;;5.03;;
50649;SDS011;36621;60.058;30.346;2023-09-19T01:18:02;7.40;;;4.10;;
50649;SDS011;36621;60.058;30.346;2023-09-19T01:33:57;5.82;;;3.38;;
50649;SDS011;36621;60.058;30.346;2023-09-19T01:41:35;4.78;;;3.05;;
50649;SDS011;36621;60.058;30.346;2023-09-19T01:49:30;4.25;;;2.80;;
50649;SDS011;36621;60.058;30.346;2023-09-19T01:57:09;4.93;;;3.15;;
50649;SDS011;36621;60.058;30.346;2023-09-19T02:04:49;7.05;;;4.50;;
50649;SDS011;36621;60.058;30.346;2023-09-19T02:12:22;6.97;;;4.30;;
50649;SDS011;36621;60.058;30.346;2023-09-19T02:19:54;6.40;;;4.00;;
50649;SDS011;36621;60.058;30.346;2023-09-19T02:27:27;11.95;;;7.85;;
50649;SDS011;36621;60.058;30.346;2023-09-19T02:35:00;4.82;;;3.38;;
50649;SDS011;36621;60.058;30.346;2023-09-19T02:42:34;6.20;;;3.42;;
50649;SDS011;36621;60.058;30.346;2023-09-19T02:50:08;5.03;;;3.30;;
50649;SDS011;36621;60.058;30.346;2023-09-19T02:57:42;3.50;;;2.90;;
50649;SDS011;36621;60.058;30.346;2023-09-19T03:05:18;4.13;;;2.47;;
50649;SDS011;36621;60.058;30.346;2023-09-19T03:12:50;6.30;;;2.50;;
50649;SDS011;36621;60.058;30.346;2023-09-19T03:20:24;6.95;;;2.90;;
50649;SDS011;36621;60.058;30.346;2023-09-19T03:27:58;5.90;;;2.55;;
50649;SDS011;36621;60.058;30.346;2023-09-19T03:35:32;6.20;;;2.83;;
50649;SDS011;36621;60.058;30.346;2023-09-19T03:43:05;8.48;;;2.28;;
50649;SDS011;36621;60.058;30.346;2023-09-19T03:50:38;3.90;;;2.40;;
50649;SDS011;36621;60.058;30.346;2023-09-19T03:58:10;4.03;;;2.25;;
50649;SDS011;36621;60.058;30.346;2023-09-19T04:05:46;6.53;;;2.30;;
50649;SDS011;36621;60.058;30.346;2023-09-19T04:13:18;5.55;;;2.22;;
50649;SDS011;36621;60.058;30.346;2023-09-19T04:20:53;3.30;;;2.10;;
50649;SDS011;36621;60.058;30.346;2023-09-19T04:28:27;7.53;;;2.10;;
50649;SDS011;36621;60.058;30.346;2023-09-19T04:35:59;4.95;;;2.00;;
50649;SDS011;36621;60.058;30.346;2023-09-19T04:43:32;7.55;;;3.00;;
50649;SDS011;36621;60.058;30.346;2023-09-19T04:51:05;7.28;;;2.22;;
50649;SDS011;36621;60.058;30.346;2023-09-19T04:58:38;6.63;;;2.38;;
50649;SDS011;36621;60.058;30.346;2023-09-19T05:06:11;11.48;;;2.30;;
50649;SDS011;36621;60.058;30.346;2023-09-19T05:13:44;9.35;;;2.90;;
50649;SDS011;36621;60.058;30.346;2023-09-19T05:21:17;4.32;;;1.98;;
50649;SDS011;36621;60.058;30.346;2023-09-19T05:28:49;7.05;;;1.70;;
50649;SDS011;36621;60.058;30.346;2023-09-19T05:36:22;3.20;;;1.45;;
50649;SDS011;36621;60.058;30.346;2023-09-19T05:43:55;5.07;;;1.50;;
50649;SDS011;36621;60.058;30.346;2023-09-19T05:51:28;6.25;;;1.73;;
50649;SDS011;36621;60.058;30.346;2023-09-19T05:59:00;3.05;;;1.83;;
50649;SDS011;36621;60.058;30.346;2023-09-19T06:06:33;2.55;;;1.60;;
50649;SDS011;36621;60.058;30.346;2023-09-19T06:14:07;3.88;;;1.95;;
50649;SDS011;36621;60.058;30.346;2023-09-19T16:28:12;10.13;;;8.32;;
50649;SDS011;36621;60.058;30.346;2023-09-19T16:35:45;13.37;;;8.40;;
50649;SDS011;36621;60.058;30.346;2023-09-19T16:43:23;14.48;;;8.30;;
50649;SDS011;36621;60.058;30.346;2023-09-19T16:50:59;14.73;;;7.80;;
50649;SDS011;36621;60.058;30.346;2023-09-19T16:58:35;13.20;;;9.10;;
50649;SDS011;36621;60.058;30.346;2023-09-19T17:06:07;12.80;;;7.70;;
50649;SDS011;36621;60.058;30.346;2023-09-19T17:13:43;13.40;;;6.90;;
50649;SDS011;36621;60.058;30.346;2023-09-19T17:29:17;9.65;;;7.20;;
50649;SDS011;36621;60.058;30.346;2023-09-19T17:37:18;13.77;;;7.10;;
50649;SDS011;36621;60.058;30.346;2023-09-19T18:04:56;8.63;;;5.90;;
50649;SDS011;36621;60.058;30.346;2023-09-19T18:12:37;9.02;;;6.60;;
50649;SDS011;36621;60.058;30.346;2023-09-19T18:20:19;9.73;;;5.90;;
50649;SDS011;36621;60.058;30.346;2023-09-19T18:27:53;12.32;;;6.57;;
50649;SDS011;36621;60.058;30.346;2023-09-19T18:35:26;8.27;;;5.50;;
50649;SDS011;36621;60.058;30.346;2023-09-19T18:43:01;8.30;;;5.90;;
50649;SDS011;36621;60.058;30.346;2023-09-19T18:50:42;12.38;;;6.75;;
50649;SDS011;36621;60.058;30.346;2023-09-19T18:58:26;10.13;;;6.07;;
50649;SDS011;36621;60.058;30.346;2023-09-19T19:06:07;11.10;;;6.10;;
50649;SDS011;36621;60.058;30.346;2023-09-19T19:13:41;10.63;;;6.30;;
50649;SDS011;36621;60.058;30.346;2023-09-19T19:21:19;13.05;;;7.05;;
50649;SDS011;36621;60.058;30.346;2023-09-19T19:28:51;10.32;;;6.22;;
50649;SDS011;36621;60.058;30.346;2023-09-19T19:36:24;11.68;;;6.25;;
50649;SDS011;36621;60.058;30.346;2023-09-19T19:43:58;10.48;;;6.20;;
50649;SDS011;36621;60.058;30.346;2023-09-19T19:51:33;11.35;;;6.53;;
50649;SDS011;36621;60.058;30.346;2023-09-19T19:59:06;8.80;;;6.68;;
50649;SDS011;36621;60.058;30.346;2023-09-19T20:06:41;12.30;;;7.13;;
50649;SDS011;36621;60.058;30.346;2023-09-19T20:14:17;12.32;;;6.28;;
50649;SDS011;36621;60.058;30.346;2023-09-19T20:21:52;13.30;;;6.50;;
50649;SDS011;36621;60.058;30.346;2023-09-19T20:29:32;9.43;;;6.70;;
50649;SDS011;36621;60.058;30.346;2023-09-19T20:37:07;9.50;;;6.30;;
50649;SDS011;36621;60.058;30.346;2023-09-19T20:44:43;11.00;;;6.85;;
50649;SDS011;36621;60.058;30.346;2023-09-19T20:52:44;11.60;;;6.63;;
50649;SDS011;36621;60.058;30.346;2023-09-19T21:00:19;11.32;;;7.22;;
50649;SDS011;36621;60.058;30.346;2023-09-19T21:07:52;12.23;;;7.60;;
50649;SDS011;36621;60.058;30.346;2023-09-19T21:15:26;8.50;;;6.68;;
50649;SDS011;36621;60.058;30.346;2023-09-19T21:23:00;8.70;;;7.13;;
50649;SDS011;36621;60.058;30.346;2023-09-19T21:30:37;11.32;;;7.45;;
50649;SDS011;36621;60.058;30.346;2023-09-19T21:38:10;11.77;;;7.00;;
50649;SDS011;36621;60.058;30.346;2023-09-19T21:45:43;9.60;;;6.25;;
50649;SDS011;36621;60.058;30.346;2023-09-19T21:53:15;12.20;;;6.60;;
50649;SDS011;36621;60.058;30.346;2023-09-19T22:00:47;9.15;;;6.65;;
50649;SDS011;36621;60.058;30.346;2023-09-19T22:08:21;12.27;;;7.60;;
50649;SDS011;36621;60.058;30.346;2023-09-19T22:15:54;7.53;;;6.68;;
50649;SDS011;36621;60.058;30.346;2023-09-19T22:23:28;10.48;;;7.18;;
50649;SDS011;36621;60.058;30.346;2023-09-19T22:31:03;7.50;;;6.35;;
50649;SDS011;36621;60.058;30.346;2023-09-19T22:38:40;7.90;;;6.63;;
50649;SDS011;36621;60.058;30.346;2023-09-19T22:46:14;7.93;;;6.18;;
50649;SDS011;36621;60.058;30.346;2023-09-19T22:53:49;10.25;;;7.18;;
50649;SDS011;36621;60.058;30.346;2023-09-19T23:01:28;8.63;;;6.85;;
50649;SDS011;36621;60.058;30.346;2023-09-19T23:09:08;9.43;;;6.60;;
50649;SDS011;36621;60.058;30.346;2023-09-19T23:16:40;9.13;;;5.70;;
50649;SDS011;36621;60.058;30.346;2023-09-19T23:24:18;7.65;;;5.15;;
50649;SDS011;36621;60.058;30.346;2023-09-19T23:31:52;7.22;;;4.45;;
50649;SDS011;36621;60.058;30.346;2023-09-19T23:39:25;9.00;;;3.35;;
50649;SDS011;36621;60.058;30.346;2023-09-19T23:46:57;7.85;;;3.65;;
50649;SDS011;36621;60.058;30.346;2023-09-19T23:54:30;6.18;;;3.60;;
